createdAt,value
2018-12-12T00:01:04.521Z,90.10
2018-12-12T00:03:32.722Z,90.30
2018-12-12T00:06:00.289Z,90.50
2018-12-12T00:08:27.861Z,90.60
2018-12-12T00:10:56.250Z,90.70
2018-12-12T00:13:24.604Z,90.60
2018-12-12T00:15:52.189Z,90.60
2018-12-12T00:18:20.592Z,91.10
2018-12-12T00:20:48.184Z,90.80
2018-12-12T00:23:15.792Z,90.90
2018-12-12T00:25:43.356Z,90.90
2018-12-12T00:28:11.694Z,91.10
2018-12-12T00:30:40.275Z,91.00
2018-12-12T00:33:07.853Z,91.00
2018-12-12T00:35:35.422Z,91.30
2018-12-12T00:38:03.045Z,90.90
2018-12-12T00:40:30.623Z,90.90
2018-12-12T00:42:58.521Z,90.90
2018-12-12T00:45:27.507Z,91.10
2018-12-12T00:47:55.082Z,91.00
2018-12-12T00:50:23.453Z,91.40
2018-12-12T00:52:51.025Z,91.30
2018-12-12T00:55:18.641Z,90.90
2018-12-12T00:57:46.220Z,90.90
2018-12-12T01:00:13.786Z,90.90
2018-12-12T01:02:41.454Z,90.90
2018-12-12T01:05:09.026Z,90.90
2018-12-12T01:07:38.206Z,90.90
2018-12-12T01:10:06.056Z,91.20
2018-12-12T01:12:33.630Z,91.00
2018-12-12T01:15:01.233Z,91.00
2018-12-12T01:17:29.564Z,91.10
2018-12-12T01:19:57.893Z,91.10
2018-12-12T01:22:25.465Z,90.80
2018-12-12T01:24:53.043Z,90.70
2018-12-12T01:27:23.090Z,90.60
2018-12-12T01:29:50.670Z,90.60
2018-12-12T01:32:18.272Z,90.60
2018-12-12T01:34:46.390Z,90.90
2018-12-12T01:37:13.927Z,90.60
2018-12-12T01:39:41.530Z,90.60
2018-12-12T01:42:10.440Z,90.70
2018-12-12T01:44:38.791Z,91.00
2018-12-12T01:47:06.366Z,90.70
2018-12-12T01:49:33.986Z,90.70
2018-12-12T01:52:01.556Z,90.90
2018-12-12T01:54:29.359Z,91.00
2018-12-12T01:56:56.976Z,91.00
2018-12-12T01:59:24.558Z,91.10
2018-12-12T02:01:52.218Z,91.20
2018-12-12T02:04:19.833Z,91.20
2018-12-12T02:06:47.863Z,91.20
2018-12-12T02:09:15.458Z,91.30
2018-12-12T02:11:43.794Z,90.90
2018-12-12T02:14:11.408Z,90.90
2018-12-12T02:16:38.988Z,91.00
2018-12-12T02:19:06.746Z,90.90
2018-12-12T02:21:34.905Z,90.80
2018-12-12T02:24:03.277Z,90.80
2018-12-12T02:26:31.230Z,90.70
2018-12-12T02:28:58.806Z,90.70
2018-12-12T02:31:28.187Z,91.00
2018-12-12T02:33:55.784Z,90.70
2018-12-12T02:36:24.139Z,90.70
2018-12-12T02:38:52.104Z,90.70
2018-12-12T02:41:19.675Z,90.70
2018-12-12T02:43:47.248Z,90.80
2018-12-12T02:46:15.661Z,90.90
2018-12-12T02:48:43.982Z,91.10
2018-12-12T02:51:11.964Z,90.70
2018-12-12T02:53:39.547Z,90.70
2018-12-12T02:56:07.461Z,90.90
2018-12-12T02:58:35.345Z,90.60
2018-12-12T03:01:02.922Z,90.70
2018-12-12T03:03:30.917Z,90.70
2018-12-12T03:05:58.953Z,90.80
2018-12-12T03:08:26.528Z,90.90
2018-12-12T03:10:54.106Z,91.00
2018-12-12T03:30:59.232Z,91.60
2018-12-12T03:33:26.799Z,91.70
2018-12-12T03:35:54.370Z,91.70
2018-12-12T03:38:21.965Z,91.70
2018-12-12T03:40:50.301Z,91.80
2018-12-12T03:43:18.360Z,91.80
2018-12-12T03:45:46.018Z,91.90
2018-12-12T03:48:14.478Z,92.00
2018-12-12T03:50:42.413Z,91.90
2018-12-12T03:53:09.977Z,91.90
2018-12-12T03:55:38.349Z,91.90
2018-12-12T03:58:05.919Z,91.80
2018-12-12T04:00:33.492Z,91.80
2018-12-12T04:03:01.864Z,91.90
2018-12-12T04:05:30.205Z,91.80
2018-12-12T04:07:57.830Z,91.80
2018-12-12T04:10:25.418Z,91.80
2018-12-12T04:12:52.988Z,91.90
2018-12-12T04:15:20.655Z,91.90
2018-12-12T04:17:48.234Z,91.90
2018-12-12T04:20:16.209Z,91.90
2018-12-12T04:22:43.796Z,91.80
2018-12-12T04:25:12.173Z,91.00
2018-12-12T04:27:39.736Z,91.00
2018-12-12T04:30:08.085Z,90.70
2018-12-12T04:32:35.695Z,90.70
2018-12-12T04:35:03.274Z,90.80
2018-12-12T04:37:30.851Z,91.00
2018-12-12T04:39:58.455Z,91.00
2018-12-12T04:42:26.808Z,91.10
2018-12-12T04:44:55.182Z,91.10
2018-12-12T04:47:22.758Z,91.10
2018-12-12T04:49:50.339Z,91.10
2018-12-12T04:52:17.944Z,90.50
2018-12-12T04:54:45.525Z,90.40
2018-12-12T04:57:13.503Z,90.50
2018-12-12T04:59:41.071Z,90.60
2018-12-12T05:02:08.653Z,90.70
2018-12-12T05:04:36.301Z,90.70
2018-12-12T05:07:03.884Z,90.70
2018-12-12T05:09:32.519Z,90.40
2018-12-12T05:12:00.094Z,90.40
2018-12-12T05:14:27.675Z,90.40
2018-12-12T05:16:55.290Z,90.40
2018-12-12T05:19:22.961Z,90.40
2018-12-12T05:21:51.065Z,90.50
2018-12-12T05:24:19.116Z,90.20
2018-12-12T05:26:46.697Z,90.60
2018-12-12T05:29:14.289Z,90.30
2018-12-12T05:31:50.819Z,90.40
2018-12-12T05:34:18.715Z,90.60
2018-12-12T05:36:47.080Z,90.50
2018-12-12T05:39:14.643Z,90.70
2018-12-12T05:41:43.217Z,90.60
2018-12-12T05:44:11.861Z,90.70
2018-12-12T05:46:41.977Z,90.90
2018-12-12T05:49:11.931Z,91.00
2018-12-12T05:51:39.538Z,91.20
2018-12-12T05:54:07.888Z,91.60
2018-12-12T05:56:36.163Z,91.60
2018-12-12T05:59:03.755Z,91.70
2018-12-12T06:01:32.143Z,92.30
2018-12-12T06:03:59.740Z,92.30
2018-12-12T06:06:27.334Z,92.30
2018-12-12T06:08:56.234Z,92.20
2018-12-12T06:11:23.820Z,92.40
2018-12-12T06:13:51.404Z,92.40
2018-12-12T06:16:19.025Z,92.40
2018-12-12T06:18:46.638Z,92.40
2018-12-12T06:21:14.219Z,92.50
2018-12-12T06:23:41.843Z,92.60
2018-12-12T06:26:09.426Z,92.80
2018-12-12T06:28:37.016Z,92.90
2018-12-12T06:31:04.657Z,93.00
2018-12-12T06:33:32.245Z,93.00
2018-12-12T06:35:59.815Z,93.20
2018-12-12T06:38:27.780Z,93.30
2018-12-12T06:40:55.360Z,93.40
2018-12-12T06:43:23.722Z,93.80
2018-12-12T06:45:51.350Z,93.70
2018-12-12T06:48:18.942Z,93.40
2018-12-12T06:50:46.517Z,93.10
2018-12-12T06:53:14.491Z,92.60
2018-12-12T06:55:43.054Z,92.70
2018-12-12T06:58:10.640Z,93.00
2018-12-12T07:00:38.895Z,92.80
2018-12-12T07:03:06.486Z,92.90
2018-12-12T07:05:34.869Z,92.80
2018-12-12T07:08:03.255Z,93.00
2018-12-12T07:10:31.595Z,92.90
2018-12-12T07:13:01.376Z,92.90
2018-12-12T07:15:28.979Z,92.90
2018-12-12T07:17:56.555Z,92.90
2018-12-12T07:20:26.509Z,93.20
2018-12-12T07:22:54.084Z,93.20
2018-12-12T07:25:21.669Z,93.20
2018-12-12T07:27:49.548Z,93.30
2018-12-12T07:30:17.396Z,93.40
2018-12-12T07:32:44.976Z,93.60
2018-12-12T07:35:12.573Z,94.00
2018-12-12T07:37:40.917Z,93.50
2018-12-12T07:40:09.478Z,93.50
2018-12-12T07:42:37.057Z,93.50
2018-12-12T07:45:04.635Z,93.60
2018-12-12T07:47:32.287Z,93.80
2018-12-12T07:49:59.858Z,93.90
2018-12-12T07:52:28.124Z,94.20
2018-12-12T07:54:56.711Z,94.00
2018-12-12T07:57:24.286Z,94.00
2018-12-12T07:59:51.860Z,94.10
2018-12-12T08:02:20.254Z,94.20
2018-12-12T08:04:47.832Z,94.20
2018-12-12T08:07:15.424Z,94.20
2018-12-12T08:09:43.050Z,94.20
2018-12-12T08:12:10.627Z,94.20
2018-12-12T08:14:38.218Z,94.50
2018-12-12T08:17:05.846Z,94.40
2018-12-12T08:19:33.426Z,94.10
2018-12-12T08:22:01.017Z,93.80
2018-12-12T08:24:28.619Z,94.10
2018-12-12T08:26:56.190Z,93.80
2018-12-12T08:29:24.195Z,94.20
2018-12-12T08:31:51.791Z,93.90
2018-12-12T08:34:20.171Z,93.90
2018-12-12T08:36:48.256Z,93.90
2018-12-12T08:39:16.602Z,93.20
2018-12-12T08:41:44.178Z,93.20
2018-12-12T08:44:12.128Z,92.80
2018-12-12T08:46:39.710Z,92.80
2018-12-12T08:49:08.177Z,92.80
2018-12-12T08:51:35.710Z,92.80
2018-12-12T08:54:03.287Z,92.80
2018-12-12T08:56:30.866Z,92.90
2018-12-12T08:58:58.826Z,92.90
2018-12-12T09:01:26.409Z,93.00
2018-12-12T09:03:53.986Z,93.00
2018-12-12T09:06:21.608Z,93.30
2018-12-12T09:08:49.194Z,92.90
2018-12-12T09:11:17.541Z,92.90
2018-12-12T09:13:45.727Z,92.90
2018-12-12T09:16:14.041Z,92.90
2018-12-12T09:18:42.382Z,93.10
2018-12-12T09:21:10.286Z,93.10
2018-12-12T09:23:38.634Z,93.10
2018-12-12T09:26:06.235Z,93.10
2018-12-12T09:28:34.622Z,93.20
2018-12-12T09:31:02.208Z,93.20
2018-12-12T09:33:29.795Z,93.30
2018-12-12T09:35:57.781Z,93.00
2018-12-12T09:38:25.365Z,92.50
2018-12-12T09:40:53.710Z,92.10
2018-12-12T09:43:21.338Z,92.10
2018-12-12T09:45:48.941Z,92.10
2018-12-12T09:48:19.348Z,92.20
2018-12-12T09:50:44.154Z,92.00
2018-12-12T09:53:11.733Z,91.50
2018-12-12T09:55:40.455Z,91.20
2018-12-12T09:58:07.697Z,91.10
2018-12-12T10:00:36.637Z,91.30
2018-12-12T10:03:04.264Z,91.30
2018-12-12T10:05:31.844Z,91.40
2018-12-12T10:07:59.418Z,91.10
2018-12-12T10:10:27.019Z,91.20
2018-12-12T10:12:54.609Z,91.60
2018-12-12T10:15:23.052Z,91.30
2018-12-12T10:17:50.628Z,91.50
2018-12-12T10:20:18.971Z,91.30
2018-12-12T10:22:46.960Z,91.30
2018-12-12T10:25:14.543Z,91.30
2018-12-12T10:27:42.891Z,91.20
2018-12-12T10:30:10.549Z,91.10
2018-12-12T10:32:38.123Z,91.10
2018-12-12T10:35:05.725Z,91.10
2018-12-12T10:37:34.578Z,91.30
2018-12-12T10:40:02.211Z,91.20
2018-12-12T10:42:29.785Z,91.00
2018-12-12T10:44:57.401Z,90.90
2018-12-12T10:47:24.979Z,90.90
2018-12-12T10:49:52.607Z,90.80
2018-12-12T10:52:20.194Z,90.80
2018-12-12T10:54:47.774Z,90.90
2018-12-12T10:57:15.680Z,90.90
2018-12-12T10:59:43.281Z,91.00
2018-12-12T11:02:29.750Z,91.10
2018-12-12T11:04:57.697Z,91.00
2018-12-12T11:07:25.323Z,91.00
2018-12-12T11:09:53.735Z,91.10
2018-12-12T11:12:21.611Z,91.10
2018-12-12T11:14:49.305Z,91.20
2018-12-12T11:17:16.811Z,91.20
2018-12-12T11:19:44.395Z,91.20
2018-12-12T11:22:13.207Z,91.20
2018-12-12T11:24:40.777Z,90.90
2018-12-12T11:27:08.354Z,90.80
2018-12-12T11:29:35.989Z,90.90
2018-12-12T11:32:03.558Z,90.70
2018-12-12T11:34:31.137Z,90.60
2018-12-12T11:37:02.043Z,90.60
2018-12-12T11:39:29.619Z,90.80
2018-12-12T11:42:00.411Z,90.50
2018-12-12T11:44:29.443Z,90.50
2018-12-12T11:46:58.029Z,90.50
2018-12-12T11:49:28.284Z,90.50
2018-12-12T11:51:56.428Z,90.50
2018-12-12T11:54:24.014Z,90.60
2018-12-12T11:56:52.374Z,90.60
2018-12-12T11:59:20.021Z,90.60
2018-12-12T12:01:47.591Z,90.20
2018-12-12T12:04:15.163Z,90.10
2018-12-12T12:06:43.130Z,90.00
2018-12-12T12:09:10.714Z,89.80
2018-12-12T12:11:41.319Z,89.60
2018-12-12T12:14:09.201Z,89.60
2018-12-12T12:16:45.233Z,89.40
2018-12-12T12:19:12.814Z,89.20
2018-12-12T12:21:41.170Z,89.20
2018-12-12T12:24:08.750Z,89.00
2018-12-12T12:26:36.369Z,88.70
2018-12-12T12:29:05.629Z,89.00
2018-12-12T12:31:33.209Z,89.00
2018-12-12T12:34:03.386Z,89.10
2018-12-12T12:36:29.785Z,89.40
2018-12-12T12:38:57.356Z,89.10
2018-12-12T12:41:25.936Z,88.50
2018-12-12T12:43:53.532Z,88.40
2018-12-12T12:46:21.266Z,88.70
2018-12-12T12:48:50.597Z,88.50
2018-12-12T12:51:18.175Z,89.00
2018-12-12T12:53:45.751Z,89.00
2018-12-12T12:56:14.833Z,88.80
2018-12-12T12:58:42.413Z,88.80
2018-12-12T13:01:10.759Z,87.50
2018-12-12T13:03:38.772Z,87.50
2018-12-12T13:06:06.350Z,86.90
2018-12-12T13:08:33.942Z,85.90
2018-12-12T13:11:01.942Z,85.30
2018-12-12T13:13:29.659Z,84.90
2018-12-12T13:15:57.875Z,84.70
2018-12-12T13:18:25.494Z,84.70
2018-12-12T13:20:53.389Z,84.30
2018-12-12T13:23:20.964Z,84.00
2018-12-12T13:25:48.579Z,84.30
2018-12-12T13:28:16.150Z,84.40
2018-12-12T13:30:43.775Z,84.50
2018-12-12T13:33:12.109Z,84.80
2018-12-12T13:35:44.494Z,84.60
2018-12-12T13:38:13.496Z,84.60
2018-12-12T13:40:41.070Z,84.50
2018-12-12T13:43:08.662Z,84.40
2018-12-12T13:45:36.268Z,84.10
2018-12-12T13:48:03.840Z,83.50
2018-12-12T13:50:31.821Z,82.40
2018-12-12T13:53:01.847Z,81.60
2018-12-12T13:55:29.423Z,79.40
2018-12-12T13:57:58.317Z,76.40
2018-12-12T14:00:26.666Z,76.60
2018-12-12T14:02:54.242Z,76.60
2018-12-12T14:05:21.875Z,76.90
2018-12-12T14:07:49.737Z,77.60
2018-12-12T14:10:17.327Z,78.00
2018-12-12T14:12:45.119Z,77.90
2018-12-12T14:15:14.920Z,75.80
2018-12-12T14:17:42.495Z,75.70
2018-12-12T14:20:11.155Z,75.60
2018-12-12T14:22:38.726Z,75.50
2018-12-12T14:25:06.300Z,75.70
2018-12-12T14:27:38.929Z,75.80
2018-12-12T14:30:02.832Z,76.30
2018-12-12T14:32:30.788Z,76.30
2018-12-12T14:34:58.983Z,76.70
2018-12-12T14:37:27.451Z,77.00
2018-12-12T14:39:55.020Z,76.50
2018-12-12T14:42:22.993Z,76.60
2018-12-12T14:44:50.565Z,76.20
2018-12-12T14:47:18.141Z,76.40
2018-12-12T14:49:47.708Z,76.70
2018-12-12T14:52:15.329Z,76.20
2018-12-12T14:54:42.901Z,76.20
2018-12-12T14:57:10.504Z,76.40
2018-12-12T14:59:38.077Z,76.40
2018-12-12T15:02:06.042Z,76.70
2018-12-12T15:04:36.112Z,76.90
2018-12-12T15:07:01.965Z,75.70
2018-12-12T15:09:29.588Z,76.30
2018-12-12T15:11:57.166Z,75.90
2018-12-12T15:14:24.799Z,76.10
2018-12-12T15:16:52.362Z,76.60
2018-12-12T15:19:19.928Z,76.90
2018-12-12T15:21:47.503Z,77.30
2018-12-12T15:24:16.464Z,77.90
2018-12-12T15:26:44.041Z,78.30
2018-12-12T15:29:11.621Z,78.70
2018-12-12T15:31:39.700Z,79.30
2018-12-12T15:34:07.636Z,79.70
2018-12-12T15:36:35.209Z,80.10
2018-12-12T15:39:03.627Z,80.60
2018-12-12T15:41:32.359Z,80.80
2018-12-12T15:44:02.145Z,81.30
2018-12-12T15:46:30.929Z,81.40
2018-12-12T15:48:59.465Z,81.80
2018-12-12T15:51:30.180Z,82.20
2018-12-12T15:54:00.882Z,82.10
2018-12-12T15:56:30.368Z,82.50
2018-12-12T15:58:59.312Z,82.40
2018-12-12T16:01:31.087Z,82.40
2018-12-12T16:03:59.934Z,82.60
2018-12-12T16:06:30.738Z,82.50
2018-12-12T16:09:00.023Z,82.80
2018-12-12T16:11:31.492Z,82.60
2018-12-12T16:13:59.175Z,82.50
2018-12-12T16:16:30.018Z,82.20
2018-12-12T16:19:00.309Z,81.40
2018-12-12T16:21:29.859Z,81.50
2018-12-12T16:23:59.295Z,81.50
2018-12-12T16:26:28.013Z,81.00
2018-12-12T16:28:55.590Z,80.90
2018-12-12T16:31:23.168Z,80.70
2018-12-12T16:33:52.909Z,80.50
2018-12-12T16:36:22.306Z,80.30
2018-12-12T16:38:50.792Z,80.20
2018-12-12T16:41:19.609Z,80.00
2018-12-12T16:43:47.177Z,79.60
2018-12-12T16:46:19.462Z,79.20
2018-12-12T16:48:48.630Z,79.20
2018-12-12T16:51:17.020Z,79.10
2018-12-12T16:53:45.350Z,79.10
2018-12-12T16:56:15.716Z,79.00
2018-12-12T16:58:45.344Z,79.00
2018-12-12T17:01:16.443Z,79.00
2018-12-12T17:03:47.199Z,79.10
2018-12-12T17:06:17.216Z,79.20
2018-12-12T17:08:47.711Z,79.40
2018-12-12T17:11:18.489Z,80.50
2018-12-12T17:13:47.921Z,80.00
2018-12-12T17:16:19.323Z,79.60
2018-12-12T17:18:48.935Z,79.50
2018-12-12T17:21:16.512Z,79.20
2018-12-12T17:23:45.356Z,79.40
2018-12-12T17:26:13.597Z,79.80
2018-12-12T17:28:43.107Z,80.40
2018-12-12T17:31:11.759Z,80.30
2018-12-12T17:33:39.360Z,80.60
2018-12-12T17:36:09.150Z,81.60
2018-12-12T17:38:37.532Z,81.60
2018-12-12T17:41:06.275Z,81.10
2018-12-12T17:43:34.002Z,81.20
2018-12-12T17:46:02.353Z,81.60
2018-12-12T17:48:32.138Z,81.60
2018-12-12T17:50:59.239Z,81.70
2018-12-12T17:53:29.611Z,81.80
2018-12-12T17:55:58.188Z,81.80
2018-12-12T17:58:26.732Z,82.00
2018-12-12T18:00:54.304Z,82.20
2018-12-12T18:03:24.065Z,82.80
2018-12-12T18:05:53.999Z,82.80
2018-12-12T18:08:23.589Z,82.90
2018-12-12T18:10:51.458Z,83.00
2018-12-12T18:13:22.062Z,83.30
2018-12-12T18:15:49.723Z,83.60
2018-12-12T18:18:17.841Z,83.60
2018-12-12T18:20:46.742Z,83.90
2018-12-12T18:23:14.304Z,84.20
2018-12-12T18:25:42.280Z,84.50
2018-12-12T18:28:10.454Z,84.70
2018-12-12T18:30:38.701Z,84.90
2018-12-12T18:33:07.553Z,85.50
2018-12-12T18:35:37.586Z,84.60
2018-12-12T18:38:05.147Z,84.50
2018-12-12T18:40:33.842Z,84.60
2018-12-12T18:43:02.375Z,84.80
2018-12-12T18:45:30.307Z,85.30
2018-12-12T18:47:59.351Z,85.60
2018-12-12T18:50:27.485Z,86.60
2018-12-12T18:52:56.365Z,86.00
2018-12-12T18:55:35.311Z,85.80
2018-12-12T18:58:05.691Z,86.10
2018-12-12T19:00:36.242Z,86.70
2018-12-12T19:03:06.780Z,86.80
2018-12-12T19:05:36.687Z,86.80
2018-12-12T19:08:07.595Z,87.00
2018-12-12T19:10:40.481Z,87.20
2018-12-12T19:13:08.048Z,87.30
2018-12-12T19:15:37.940Z,87.40
2018-12-12T19:18:08.766Z,87.60
2018-12-12T19:20:41.299Z,87.80
2018-12-12T19:23:11.709Z,88.70
2018-12-12T19:25:41.355Z,88.10
2018-12-12T19:28:11.097Z,88.20
2018-12-12T19:30:40.788Z,88.30
2018-12-12T19:33:13.498Z,88.30
2018-12-12T19:35:41.073Z,88.50
2018-12-12T19:38:08.647Z,88.40
2018-12-12T19:40:40.083Z,88.40
2018-12-12T19:43:07.656Z,88.40
2018-12-12T19:45:38.210Z,88.50
2018-12-12T19:48:06.745Z,88.50
2018-12-12T19:50:36.732Z,88.70
2018-12-12T19:53:08.254Z,88.60
2018-12-12T19:55:38.584Z,88.40
2018-12-12T19:58:07.393Z,88.40
2018-12-12T20:00:38.125Z,88.40
2018-12-12T20:03:06.520Z,88.40
2018-12-12T20:05:41.095Z,88.50
2018-12-12T20:08:04.865Z,88.60
2018-12-12T20:10:34.012Z,88.90
2018-12-12T20:13:04.476Z,88.20
2018-12-12T20:15:44.222Z,88.40
2018-12-12T20:18:11.802Z,87.90
2018-12-12T20:20:40.085Z,88.40
2018-12-12T20:23:10.870Z,88.10
2018-12-12T20:25:40.108Z,88.40
2018-12-12T20:28:14.349Z,88.80
2018-12-12T20:30:43.112Z,89.20
2018-12-12T20:33:11.474Z,89.50
2018-12-12T20:35:39.092Z,89.80
2018-12-12T20:38:06.708Z,90.00
2018-12-12T20:40:34.289Z,90.10
2018-12-12T20:43:03.102Z,90.10
2018-12-12T20:45:31.410Z,90.30
2018-12-12T20:47:59.019Z,90.50
2018-12-12T20:50:26.600Z,90.60
2018-12-12T20:52:54.198Z,90.70
2018-12-12T20:55:21.780Z,90.80
2018-12-12T20:57:52.772Z,90.90
2018-12-12T21:00:20.642Z,91.00
2018-12-12T21:02:48.242Z,91.40
2018-12-12T21:05:16.229Z,91.10
2018-12-12T21:07:46.166Z,91.10
2018-12-12T21:10:14.255Z,91.10
2018-12-12T21:12:46.721Z,91.10
2018-12-12T21:15:16.636Z,91.30
2018-12-12T21:17:44.393Z,91.30
2018-12-12T21:20:12.763Z,91.20
2018-12-12T21:22:41.060Z,91.10
2018-12-12T21:25:12.200Z,91.30
2018-12-12T21:27:45.422Z,91.30
2018-12-12T21:30:17.267Z,90.90
2018-12-12T21:32:41.366Z,90.90
2018-12-12T21:35:08.964Z,90.80
2018-12-12T21:37:36.507Z,90.70
2018-12-12T21:40:05.047Z,90.60
2018-12-12T21:42:32.622Z,90.60
2018-12-12T21:45:00.203Z,90.70
2018-12-12T21:47:28.124Z,90.80
2018-12-12T21:49:55.759Z,90.80
2018-12-12T21:52:24.041Z,91.30
2018-12-12T21:54:52.028Z,91.10
2018-12-12T21:57:19.978Z,91.20
2018-12-12T21:59:47.680Z,91.30
2018-12-12T22:02:15.641Z,91.30
2018-12-12T22:04:43.209Z,91.30
2018-12-12T22:07:11.684Z,91.50
2018-12-12T22:09:39.997Z,91.20
2018-12-12T22:12:07.564Z,91.20
2018-12-12T22:14:35.156Z,91.10
2018-12-12T22:17:02.813Z,91.10
2018-12-12T22:19:30.425Z,91.10
2018-12-12T22:21:57.966Z,91.10
2018-12-12T22:26:59.532Z,91.00
2018-12-12T22:29:27.118Z,91.30
2018-12-12T22:31:55.509Z,91.20
2018-12-12T22:34:23.856Z,91.00
2018-12-12T22:36:51.474Z,91.00
2018-12-12T22:39:19.059Z,91.00
2018-12-12T22:41:46.640Z,90.70
2018-12-12T22:44:14.535Z,91.10
2018-12-12T22:46:42.136Z,91.10
2018-12-12T22:49:12.135Z,91.10
2018-12-12T22:51:40.541Z,91.20
2018-12-12T22:54:08.121Z,91.20
2018-12-12T22:56:35.709Z,91.20
2018-12-12T22:59:03.436Z,91.30
2018-12-12T23:01:31.012Z,91.30
2018-12-12T23:03:58.597Z,91.40
2018-12-12T23:06:26.299Z,91.60
2018-12-12T23:08:53.888Z,91.60
2018-12-12T23:11:21.471Z,91.70
2018-12-12T23:13:49.445Z,91.70
2018-12-12T23:16:17.026Z,91.80
2018-12-12T23:18:45.403Z,92.00
2018-12-12T23:21:13.821Z,91.70
2018-12-12T23:23:41.397Z,91.70
2018-12-12T23:26:08.984Z,91.60
2018-12-12T23:28:36.953Z,91.50
2018-12-12T23:31:04.547Z,91.50
2018-12-12T23:33:32.896Z,91.60
2018-12-12T23:36:00.518Z,91.50
2018-12-12T23:38:28.090Z,91.50
2018-12-12T23:40:55.665Z,91.50
2018-12-12T23:43:23.299Z,91.60
2018-12-12T23:45:50.875Z,91.50
2018-12-12T23:48:18.530Z,91.50
2018-12-12T23:50:46.110Z,91.40
2018-12-12T23:53:13.983Z,91.40
2018-12-12T23:55:41.870Z,91.40
2018-12-12T23:58:09.446Z,91.30
